Time;durP1;ratioP1;P1;durP2;ratioP2;P2;SDS_P1;SDS_P2;PMS_P1;PMS_P2;Temp;Humidity;BMP_temperature;BMP_pressure;BME280_temperature;BME280_humidity;BME280_pressure;Samples;Min_cycle;Max_cycle;Signal;HPM_P1;HPM_P2
2021/12/27 00:01:20;;;;;;;11.55;4.65;;;;;;;;;;5026771;28;20065;-57
2021/12/27 00:03:49;;;;;;;11.77;4.78;;;;;;;;;;5033186;28;20052;-56
2021/12/27 00:06:16;;;;;;;10.23;4.80;;;;;;;;;;5026348;28;20053;-53
2021/12/27 00:08:43;;;;;;;10.98;4.60;;;;;;;;;;5047639;28;20057;-57
2021/12/27 00:11:10;;;;;;;16.02;6.25;;;;;;;;;;5043695;28;20045;-55
2021/12/27 00:13:37;;;;;;;14.07;5.43;;;;;;;;;;5042363;28;20074;-54
2021/12/27 00:16:04;;;;;;;15.20;4.72;;;;;;;;;;5050602;28;20052;-57
2021/12/27 00:18:32;;;;;;;14.45;5.35;;;;;;;;;;5042279;28;20283;-55
2021/12/27 00:20:59;;;;;;;12.50;5.40;;;;;;;;;;5047496;28;20053;-51
2021/12/27 00:23:25;;;;;;;12.70;4.78;;;;;;;;;;5032085;28;20068;-52
2021/12/27 00:25:51;;;;;;;9.43;4.00;;;;;;;;;;5030263;28;20048;-53
2021/12/27 00:28:18;;;;;;;11.05;4.25;;;;;;;;;;5034597;28;20080;-58
2021/12/27 00:30:46;;;;;;;17.02;6.78;;;;;;;;;;5047392;28;20056;-55
2021/12/27 00:33:13;;;;;;;15.38;4.57;;;;;;;;;;5042441;28;20075;-53
2021/12/27 00:35:41;;;;;;;13.20;4.50;;;;;;;;;;5047584;28;20060;-57
2021/12/27 00:38:08;;;;;;;10.38;4.00;;;;;;;;;;5038125;28;20115;-55
2021/12/27 00:40:35;;;;;;;14.10;5.55;;;;;;;;;;5030449;28;20072;-55
2021/12/27 00:43:02;;;;;;;16.15;5.47;;;;;;;;;;5038271;28;20049;-51
2021/12/27 00:45:28;;;;;;;13.20;5.63;;;;;;;;;;5030546;28;20136;-56
2021/12/27 00:47:55;;;;;;;15.27;6.53;;;;;;;;;;5025936;28;20159;-54
2021/12/27 00:50:22;;;;;;;16.13;5.07;;;;;;;;;;5047538;28;20526;-53
2021/12/27 00:52:50;;;;;;;12.77;4.75;;;;;;;;;;5028149;28;20482;-56
2021/12/27 00:55:16;;;;;;;13.63;4.65;;;;;;;;;;5029750;28;20061;-53
2021/12/27 00:57:43;;;;;;;17.02;5.35;;;;;;;;;;5030669;28;20053;-54
2021/12/27 01:00:13;;;;;;;13.18;5.18;;;;;;;;;;5026728;28;20055;-58
2021/12/27 01:02:40;;;;;;;14.00;5.40;;;;;;;;;;5029617;28;20084;-53
2021/12/27 01:05:07;;;;;;;16.63;5.28;;;;;;;;;;5037286;28;20102;-54
2021/12/27 01:07:34;;;;;;;9.57;4.25;;;;;;;;;;5046407;28;20073;-52
2021/12/27 01:10:17;;;;;;;15.27;5.57;;;;;;;;;;5042150;28;20067;-58
2021/12/27 01:12:51;;;;;;;12.07;4.28;;;;;;;;;;5042136;28;20085;-56
2021/12/27 01:15:45;;;;;;;11.95;4.85;;;;;;;;;;5036235;28;20093;-57
2021/12/27 01:18:12;;;;;;;12.35;5.03;;;;;;;;;;5046148;28;20049;-54
2021/12/27 01:20:39;;;;;;;14.75;5.45;;;;;;;;;;5031384;28;20136;-56
2021/12/27 01:23:05;;;;;;;9.13;4.28;;;;;;;;;;5030924;28;20068;-54
2021/12/27 01:25:33;;;;;;;9.43;3.95;;;;;;;;;;5027231;28;20061;-58
2021/12/27 01:27:59;;;;;;;14.53;5.03;;;;;;;;;;5031593;28;20124;-58
2021/12/27 01:30:26;;;;;;;12.65;4.60;;;;;;;;;;5033918;28;20076;-58
2021/12/27 01:32:56;;;;;;;11.20;4.22;;;;;;;;;;5046107;28;20072;-52
2021/12/27 01:35:23;;;;;;;13.07;4.97;;;;;;;;;;5041865;28;20052;-55
2021/12/27 01:37:50;;;;;;;13.35;4.72;;;;;;;;;;5046030;28;20061;-52
2021/12/27 01:40:18;;;;;;;11.40;4.72;;;;;;;;;;5040572;28;20084;-54
2021/12/27 01:43:08;;;;;;;17.42;5.60;;;;;;;;;;5029175;28;20095;-55
2021/12/27 01:45:36;;;;;;;13.50;4.50;;;;;;;;;;5025543;28;20143;-57
2021/12/27 01:48:03;;;;;;;12.77;4.40;;;;;;;;;;5028954;28;20116;-55
2021/12/27 01:50:30;;;;;;;9.05;3.53;;;;;;;;;;5025593;28;20053;-56
2021/12/27 01:52:56;;;;;;;14.88;5.03;;;;;;;;;;5029810;28;20067;-56
2021/12/27 01:55:23;;;;;;;11.98;4.80;;;;;;;;;;5024879;28;20053;-55
2021/12/27 01:57:50;;;;;;;10.85;4.40;;;;;;;;;;5028496;28;20056;-54
2021/12/27 02:00:18;;;;;;;13.30;4.13;;;;;;;;;;5029280;28;20056;-57
2021/12/27 02:02:45;;;;;;;13.15;4.70;;;;;;;;;;5021603;28;20537;-56
2021/12/27 02:05:11;;;;;;;11.30;4.82;;;;;;;;;;5025648;28;20061;-51
2021/12/27 02:07:38;;;;;;;12.25;4.65;;;;;;;;;;5021414;28;20085;-54
2021/12/27 02:10:05;;;;;;;18.40;4.60;;;;;;;;;;5025184;28;20069;-56
2021/12/27 02:12:32;;;;;;;12.45;3.90;;;;;;;;;;5021920;28;20055;-52
2021/12/27 02:14:59;;;;;;;11.70;4.88;;;;;;;;;;5045854;28;20084;-56
2021/12/27 02:17:26;;;;;;;14.27;4.97;;;;;;;;;;5030933;28;20077;-56
2021/12/27 02:19:54;;;;;;;9.20;3.93;;;;;;;;;;5025532;28;20073;-56
2021/12/27 02:22:22;;;;;;;12.35;4.78;;;;;;;;;;5022536;28;20057;-58
2021/12/27 02:24:49;;;;;;;13.88;4.38;;;;;;;;;;5026188;28;20049;-55
2021/12/27 02:27:16;;;;;;;10.77;3.83;;;;;;;;;;5021128;28;20049;-54
2021/12/27 02:29:43;;;;;;;15.43;4.90;;;;;;;;;;5025475;28;20053;-54
2021/12/27 02:32:10;;;;;;;11.70;4.78;;;;;;;;;;5021800;28;20049;-56
2021/12/27 02:34:37;;;;;;;12.63;5.07;;;;;;;;;;5025301;28;20041;-58
2021/12/27 02:37:05;;;;;;;14.77;5.13;;;;;;;;;;5021359;28;20053;-54
2021/12/27 02:39:31;;;;;;;14.13;5.03;;;;;;;;;;5024571;28;20064;-56
2021/12/27 02:41:58;;;;;;;10.60;4.93;;;;;;;;;;5025696;28;20081;-58
2021/12/27 02:44:25;;;;;;;10.45;4.57;;;;;;;;;;5020614;28;20084;-58
2021/12/27 02:46:51;;;;;;;12.30;4.47;;;;;;;;;;5028816;28;20060;-57
2021/12/27 02:49:18;;;;;;;15.88;5.22;;;;;;;;;;5025510;28;20628;-60
2021/12/27 02:51:45;;;;;;;9.80;3.90;;;;;;;;;;5030871;28;20115;-58
2021/12/27 02:54:13;;;;;;;15.75;4.88;;;;;;;;;;5027623;28;20053;-60
2021/12/27 02:56:39;;;;;;;11.53;3.83;;;;;;;;;;5029872;28;20130;-57
2021/12/27 02:59:06;;;;;;;15.15;5.32;;;;;;;;;;5025625;28;20797;-54
2021/12/27 03:01:35;;;;;;;10.20;4.53;;;;;;;;;;5018765;28;20085;-54
2021/12/27 03:04:01;;;;;;;10.95;4.25;;;;;;;;;;5015475;28;20132;-50
2021/12/27 03:06:28;;;;;;;14.00;4.95;;;;;;;;;;5028042;28;20041;-59
2021/12/27 03:08:54;;;;;;;14.95;5.18;;;;;;;;;;5023031;28;20072;-58
2021/12/27 03:11:22;;;;;;;11.52;4.55;;;;;;;;;;5028892;28;20080;-54
2021/12/27 03:13:51;;;;;;;14.45;4.25;;;;;;;;;;5025292;28;20099;-54
2021/12/27 03:16:18;;;;;;;13.63;4.43;;;;;;;;;;5028486;28;20119;-55
2021/12/27 03:18:47;;;;;;;10.10;3.83;;;;;;;;;;5025653;28;20140;-55
2021/12/27 03:21:14;;;;;;;;;;;;;;;;;;5029328;28;20054;-53
2021/12/27 03:23:41;;;;;;;15.38;4.35;;;;;;;;;;5026423;28;19925;-51
2021/12/27 03:26:08;;;;;;;8.23;3.10;;;;;;;;;;5026992;28;20143;-55
2021/12/27 03:28:37;;;;;;;17.20;4.72;;;;;;;;;;5028009;28;20052;-55
2021/12/27 03:31:03;;;;;;;;;;;;;;;;;;5025061;28;20096;-52
2021/12/27 03:33:31;;;;;;;9.88;3.78;;;;;;;;;;5028613;28;19928;-56
2021/12/27 03:36:01;;;;;;;14.60;5.32;;;;;;;;;;5024436;28;20063;-52
2021/12/27 03:38:29;;;;;;;11.70;3.88;;;;;;;;;;5028039;28;20068;-57
2021/12/27 03:40:56;;;;;;;15.98;5.05;;;;;;;;;;5023739;28;20117;-50
2021/12/27 03:43:23;;;;;;;15.13;4.80;;;;;;;;;;5028668;28;20111;-54
2021/12/27 03:45:51;;;;;;;8.70;3.83;;;;;;;;;;5024263;28;20064;-53
2021/12/27 03:48:17;;;;;;;9.05;3.35;;;;;;;;;;5028486;28;20061;-54
2021/12/27 03:50:44;;;;;;;10.27;3.85;;;;;;;;;;5025039;28;20073;-54
2021/12/27 03:53:11;;;;;;;10.77;4.72;;;;;;;;;;5028098;28;20056;-55
2021/12/27 03:55:37;;;;;;;14.25;4.13;;;;;;;;;;5024021;28;20107;-56
2021/12/27 03:58:09;;;;;;;15.38;4.80;;;;;;;;;;5027301;28;20080;-57
2021/12/27 04:00:47;;;;;;;12.85;4.70;;;;;;;;;;5024515;28;20050;-59
2021/12/27 04:03:15;;;;;;;14.38;5.15;;;;;;;;;;5027995;28;20088;-57
2021/12/27 04:05:42;;;;;;;12.52;4.43;;;;;;;;;;5024236;28;21992;-57
2021/12/27 04:08:10;;;;;;;13.63;4.80;;;;;;;;;;5027833;28;20089;-57
2021/12/27 04:10:37;;;;;;;11.00;4.53;;;;;;;;;;5023650;28;20054;-59
2021/12/27 04:13:03;;;;;;;12.32;4.10;;;;;;;;;;5028015;28;20046;-60
2021/12/27 04:15:30;;;;;;;12.32;4.35;;;;;;;;;;5027821;28;20077;-61
2021/12/27 04:17:57;;;;;;;11.73;3.83;;;;;;;;;;5025012;28;20413;-57
2021/12/27 04:20:25;;;;;;;12.68;4.65;;;;;;;;;;5029080;28;20049;-61
2021/12/27 04:22:52;;;;;;;9.55;3.40;;;;;;;;;;5025337;28;20068;-53
2021/12/27 04:25:20;;;;;;;14.43;4.72;;;;;;;;;;5027360;28;20054;-56
2021/12/27 04:27:47;;;;;;;9.88;3.72;;;;;;;;;;5023606;28;20073;-58
2021/12/27 04:30:16;;;;;;;9.38;3.60;;;;;;;;;;5027369;28;20056;-57
2021/12/27 04:32:42;;;;;;;9.65;3.50;;;;;;;;;;5023857;28;20056;-53
2021/12/27 04:35:09;;;;;;;10.52;3.95;;;;;;;;;;5027562;28;20057;-54
2021/12/27 04:37:37;;;;;;;11.50;3.83;;;;;;;;;;5023553;28;20045;-52
2021/12/27 04:40:06;;;;;;;10.07;3.70;;;;;;;;;;5026841;28;20144;-56
2021/12/27 04:42:32;;;;;;;13.63;4.13;;;;;;;;;;5023175;28;20144;-51
2021/12/27 04:44:59;;;;;;;16.67;4.55;;;;;;;;;;5027358;28;20057;-55
2021/12/27 04:47:26;;;;;;;16.13;5.13;;;;;;;;;;5023174;28;20073;-53
2021/12/27 04:49:53;;;;;;;14.80;5.28;;;;;;;;;;5027126;28;20065;-56
2021/12/27 04:52:19;;;;;;;12.25;4.68;;;;;;;;;;5023094;28;20088;-54
2021/12/27 04:54:47;;;;;;;12.73;4.47;;;;;;;;;;5025947;28;20172;-56
2021/12/27 04:57:14;;;;;;;9.75;4.28;;;;;;;;;;5025781;28;20049;-53
2021/12/27 04:59:40;;;;;;;11.88;4.40;;;;;;;;;;5022694;28;20054;-58
2021/12/27 05:02:07;;;;;;;13.07;4.85;;;;;;;;;;5026520;28;20079;-52
2021/12/27 05:04:35;;;;;;;13.60;4.72;;;;;;;;;;5022669;28;20064;-54
2021/12/27 05:07:01;;;;;;;13.93;3.67;;;;;;;;;;5026556;28;20503;-57
2021/12/27 05:09:28;;;;;;;10.82;3.85;;;;;;;;;;5022433;28;20124;-54
2021/12/27 05:11:56;;;;;;;10.98;4.10;;;;;;;;;;5027664;28;20136;-57
2021/12/27 05:14:23;;;;;;;11.55;4.43;;;;;;;;;;5022598;28;20148;-54
2021/12/27 05:16:49;;;;;;;17.70;5.32;;;;;;;;;;5026478;28;20127;-58
2021/12/27 05:19:16;;;;;;;10.05;4.18;;;;;;;;;;5021927;28;20462;-55
2021/12/27 05:21:43;;;;;;;18.77;4.40;;;;;;;;;;5026230;28;20103;-53
2021/12/27 05:24:09;;;;;;;15.75;5.32;;;;;;;;;;5023780;28;20053;-56
2021/12/27 05:26:36;;;;;;;12.43;4.43;;;;;;;;;;5026372;28;20052;-57
2021/12/27 05:29:04;;;;;;;11.93;4.35;;;;;;;;;;5022486;28;20554;-54
2021/12/27 05:31:31;;;;;;;15.60;4.38;;;;;;;;;;5025081;28;20145;-62
2021/12/27 05:33:57;;;;;;;15.13;5.07;;;;;;;;;;5021938;28;20103;-56
2021/12/27 05:36:24;;;;;;;11.05;4.47;;;;;;;;;;5025836;28;20127;-60
2021/12/27 05:38:50;;;;;;;16.23;5.20;;;;;;;;;;5026332;28;20080;-61
2021/12/27 05:41:17;;;;;;;13.40;3.88;;;;;;;;;;5022020;28;20046;-58
2021/12/27 05:43:44;;;;;;;14.07;5.05;;;;;;;;;;5027139;28;20080;-61
2021/12/27 05:46:12;;;;;;;11.75;5.10;;;;;;;;;;5023679;28;20069;-60
2021/12/27 05:48:38;;;;;;;11.40;3.88;;;;;;;;;;5028324;28;20045;-61
2021/12/27 05:51:05;;;;;;;12.50;4.88;;;;;;;;;;5021980;28;20144;-57
2021/12/27 05:53:31;;;;;;;12.10;4.60;;;;;;;;;;5025869;28;20072;-49
2021/12/27 05:55:58;;;;;;;15.00;5.43;;;;;;;;;;5022267;28;20051;-57
2021/12/27 05:58:25;;;;;;;11.77;4.63;;;;;;;;;;5026063;28;20159;-58
2021/12/27 06:00:52;;;;;;;13.63;4.45;;;;;;;;;;5018058;28;20122;-57
2021/12/27 06:03:20;;;;;;;17.95;5.35;;;;;;;;;;5024514;28;20148;-52
2021/12/27 06:05:46;;;;;;;16.87;5.37;;;;;;;;;;5009694;28;20076;-54
2021/12/27 06:08:13;;;;;;;14.77;5.25;;;;;;;;;;5012505;28;20057;-54
2021/12/27 06:10:41;;;;;;;13.68;4.63;;;;;;;;;;5011104;28;20053;-55
2021/12/27 06:13:07;;;;;;;16.90;5.13;;;;;;;;;;5011032;28;20060;-54
2021/12/27 06:15:34;;;;;;;12.20;4.22;;;;;;;;;;5018294;28;20078;-55
2021/12/27 06:18:00;;;;;;;10.52;3.88;;;;;;;;;;5012603;28;20062;-53
2021/12/27 06:20:31;;;;;;;11.80;5.00;;;;;;;;;;5023850;28;20056;-59
2021/12/27 06:22:58;;;;;;;14.20;5.10;;;;;;;;;;5016006;28;20054;-59
2021/12/27 06:25:24;;;;;;;13.02;4.35;;;;;;;;;;5018340;28;20068;-56
2021/12/27 06:27:51;;;;;;;18.98;5.28;;;;;;;;;;5022671;28;20142;-55
2021/12/27 06:30:20;;;;;;;18.23;5.63;;;;;;;;;;5026764;28;20069;-50
2021/12/27 06:32:46;;;;;;;9.05;3.67;;;;;;;;;;5016579;28;20054;-49
2021/12/27 06:35:14;;;;;;;18.17;5.20;;;;;;;;;;5019031;28;20177;-55
2021/12/27 06:37:43;;;;;;;15.25;5.63;;;;;;;;;;5016240;28;20064;-52
2021/12/27 06:40:10;;;;;;;15.30;5.05;;;;;;;;;;5025607;28;20151;-58
2021/12/27 06:42:37;;;;;;;14.40;4.85;;;;;;;;;;5014246;28;20125;-54
2021/12/27 06:45:04;;;;;;;12.68;4.90;;;;;;;;;;5010309;28;20085;-49
2021/12/27 06:47:30;;;;;;;14.55;5.13;;;;;;;;;;5015873;28;20144;-54
2021/12/27 06:49:57;;;;;;;13.15;4.85;;;;;;;;;;5017917;28;20104;-56
2021/12/27 06:52:24;;;;;;;13.20;4.57;;;;;;;;;;5015122;28;20142;-51
2021/12/27 06:54:52;;;;;;;18.55;5.97;;;;;;;;;;5019944;28;20053;-52
2021/12/27 06:57:21;;;;;;;10.98;4.57;;;;;;;;;;5014733;28;20115;-56
2021/12/27 06:59:48;;;;;;;12.00;5.55;;;;;;;;;;5024205;28;20049;-59
2021/12/27 07:02:15;;;;;;;15.45;5.88;;;;;;;;;;5026791;28;20152;-54
2021/12/27 07:04:41;;;;;;;13.55;4.40;;;;;;;;;;5050218;28;20053;-58
2021/12/27 07:07:08;;;;;;;11.27;4.82;;;;;;;;;;5049410;28;20103;-58
2021/12/27 07:09:34;;;;;;;16.17;4.72;;;;;;;;;;5030822;28;20453;-59
2021/12/27 07:12:03;;;;;;;13.45;5.63;;;;;;;;;;5032850;28;20056;-53
2021/12/27 07:14:29;;;;;;;15.75;6.15;;;;;;;;;;5033573;28;20057;-55
2021/12/27 07:16:56;;;;;;;12.05;4.88;;;;;;;;;;5034162;28;20053;-56
2021/12/27 07:19:22;;;;;;;16.00;4.72;;;;;;;;;;5031891;28;20067;-57
2021/12/27 07:21:49;;;;;;;10.90;4.35;;;;;;;;;;5034650;28;20049;-54
2021/12/27 07:24:16;;;;;;;13.30;4.45;;;;;;;;;;5032078;28;20045;-59
2021/12/27 07:26:42;;;;;;;17.30;5.28;;;;;;;;;;5034238;28;20054;-56
2021/12/27 07:29:10;;;;;;;15.25;5.00;;;;;;;;;;5031500;28;20045;-56
2021/12/27 07:31:42;;;;;;;13.60;5.27;;;;;;;;;;5034025;28;20057;-56
2021/12/27 07:34:08;;;;;;;15.63;5.70;;;;;;;;;;5032017;28;20078;-57
2021/12/27 07:36:35;;;;;;;11.40;4.78;;;;;;;;;;5034662;28;20072;-58
2021/12/27 07:39:01;;;;;;;17.63;4.65;;;;;;;;;;5029772;28;20048;-57
2021/12/27 07:41:30;;;;;;;13.00;4.18;;;;;;;;;;5034813;28;20056;-56
2021/12/27 07:43:57;;;;;;;;;;;;;;;;;;5031671;28;20083;-49
2021/12/27 07:46:25;;;;;;;9.52;4.13;;;;;;;;;;5034777;28;19925;-56
2021/12/27 07:48:51;;;;;;;11.73;4.40;;;;;;;;;;5034483;28;20060;-59
2021/12/27 07:51:19;;;;;;;12.98;4.70;;;;;;;;;;5031875;28;20147;-54
2021/12/27 07:53:46;;;;;;;15.53;5.20;;;;;;;;;;5034333;28;20103;-57
2021/12/27 07:56:12;;;;;;;11.25;4.10;;;;;;;;;;5030341;28;20307;-58
2021/12/27 07:58:39;;;;;;;15.68;5.68;;;;;;;;;;5049404;28;20140;-54
2021/12/27 08:01:06;;;;;;;12.57;5.20;;;;;;;;;;5037304;28;20053;-55
2021/12/27 08:03:34;;;;;;;13.52;5.18;;;;;;;;;;5032443;28;20092;-61
2021/12/27 08:06:03;;;;;;;11.77;4.45;;;;;;;;;;5036946;28;20103;-52
2021/12/27 08:08:29;;;;;;;9.48;3.80;;;;;;;;;;5050688;28;20052;-58
2021/12/27 08:10:57;;;;;;;10.82;5.07;;;;;;;;;;5046562;28;20111;-51
2021/12/27 08:13:24;;;;;;;10.93;3.75;;;;;;;;;;5042043;28;20063;-57
2021/12/27 08:15:50;;;;;;;10.55;4.45;;;;;;;;;;5029033;28;20067;-60
2021/12/27 08:18:17;;;;;;;10.43;4.18;;;;;;;;;;5034090;28;20152;-58
2021/12/27 08:20:47;;;;;;;11.25;4.60;;;;;;;;;;5030873;28;20140;-58
2021/12/27 08:23:14;;;;;;;13.23;4.28;;;;;;;;;;5050739;28;20045;-56
2021/12/27 08:25:41;;;;;;;12.75;4.53;;;;;;;;;;5038898;28;20116;-58
2021/12/27 08:28:07;;;;;;;13.75;4.55;;;;;;;;;;5032391;28;20103;-53
2021/12/27 08:30:42;;;;;;;10.25;4.22;;;;;;;;;;5032513;28;20045;-52
2021/12/27 08:33:08;;;;;;;14.73;5.05;;;;;;;;;;5033181;28;20143;-52
2021/12/27 08:35:36;;;;;;;10.68;4.53;;;;;;;;;;5033305;28;20053;-56
2021/12/27 08:38:04;;;;;;;13.52;5.25;;;;;;;;;;5029752;28;20056;-53
2021/12/27 08:40:31;;;;;;;13.27;5.25;;;;;;;;;;5045692;28;20064;-55
2021/12/27 08:42:58;;;;;;;12.52;4.85;;;;;;;;;;5032326;28;20057;-57
2021/12/27 08:45:24;;;;;;;13.10;5.38;;;;;;;;;;5033380;28;20102;-57
2021/12/27 08:47:51;;;;;;;12.00;5.07;;;;;;;;;;5030540;28;20083;-54
2021/12/27 08:50:25;;;;;;;8.73;4.00;;;;;;;;;;5033444;28;20084;-54
2021/12/27 08:52:52;;;;;;;9.15;3.88;;;;;;;;;;5030260;28;20329;-55
2021/12/27 08:55:20;;;;;;;11.82;4.32;;;;;;;;;;5033023;28;20087;-61
2021/12/27 08:57:46;;;;;;;13.43;4.60;;;;;;;;;;5030315;28;20140;-60
2021/12/27 09:00:14;;;;;;;10.75;4.50;;;;;;;;;;5051048;28;20052;-58
2021/12/27 09:02:41;;;;;;;12.40;4.90;;;;;;;;;;5028840;28;20052;-60
2021/12/27 09:05:08;;;;;;;10.07;4.05;;;;;;;;;;5033141;28;20045;-54
2021/12/27 09:07:34;;;;;;;11.70;4.25;;;;;;;;;;5030303;28;20092;-58
2021/12/27 09:10:02;;;;;;;10.90;4.22;;;;;;;;;;5049454;28;20053;-53
2021/12/27 09:12:30;;;;;;;8.90;3.80;;;;;;;;;;5045022;28;20055;-55
2021/12/27 09:14:56;;;;;;;12.25;3.53;;;;;;;;;;5032598;28;20053;-56
2021/12/27 09:17:23;;;;;;;8.73;3.70;;;;;;;;;;5033114;28;20300;-62
2021/12/27 09:19:57;;;;;;;9.13;3.58;;;;;;;;;;5030317;28;20372;-58
2021/12/27 09:22:24;;;;;;;9.30;3.85;;;;;;;;;;5032980;28;20130;-56
2021/12/27 09:24:50;;;;;;;10.75;4.47;;;;;;;;;;5043586;28;20056;-60
2021/12/27 09:27:17;;;;;;;13.68;4.05;;;;;;;;;;5049286;28;20063;-52
2021/12/27 09:29:45;;;;;;;9.90;3.78;;;;;;;;;;5033411;28;20083;-57
2021/12/27 09:32:11;;;;;;;9.35;3.47;;;;;;;;;;5032910;28;20064;-60
2021/12/27 09:34:38;;;;;;;11.88;3.85;;;;;;;;;;5029103;28;20071;-52
2021/12/27 09:37:05;;;;;;;10.82;4.28;;;;;;;;;;5032648;28;20052;-59
2021/12/27 09:39:32;;;;;;;9.50;3.92;;;;;;;;;;5033745;28;20072;-56
2021/12/27 09:42:00;;;;;;;10.43;4.22;;;;;;;;;;5049058;28;20122;-52
2021/12/27 09:44:26;;;;;;;9.10;3.22;;;;;;;;;;5041153;28;20330;-53
2021/12/27 09:46:54;;;;;;;11.38;4.38;;;;;;;;;;5032278;28;20151;-55
2021/12/27 09:49:22;;;;;;;8.93;3.75;;;;;;;;;;5031128;28;20099;-60
2021/12/27 09:51:49;;;;;;;10.38;4.05;;;;;;;;;;5049118;28;20114;-59
2021/12/27 09:54:16;;;;;;;10.73;4.03;;;;;;;;;;5045306;28;20110;-57
2021/12/27 09:56:42;;;;;;;11.90;4.13;;;;;;;;;;5047405;28;20056;-52
2021/12/27 09:59:09;;;;;;;11.57;4.03;;;;;;;;;;5045427;28;20124;-57
2021/12/27 10:01:38;;;;;;;8.50;3.92;;;;;;;;;;5048806;28;20079;-59
2021/12/27 10:04:06;;;;;;;9.10;3.65;;;;;;;;;;5039303;28;20073;-60
2021/12/27 10:06:34;;;;;;;7.85;3.42;;;;;;;;;;5028639;28;20136;-60
2021/12/27 10:09:01;;;;;;;11.02;4.13;;;;;;;;;;5031892;28;20143;-58
2021/12/27 10:11:30;;;;;;;10.38;4.22;;;;;;;;;;5041256;28;20087;-54
2021/12/27 10:14:00;;;;;;;13.82;4.15;;;;;;;;;;5036141;28;20045;-56
2021/12/27 10:16:27;;;;;;;8.38;3.75;;;;;;;;;;5024731;28;20061;-60
2021/12/27 10:18:55;;;;;;;9.85;3.85;;;;;;;;;;5025865;28;20053;-51
2021/12/27 10:21:24;;;;;;;9.00;3.13;;;;;;;;;;5036810;28;20148;-60
2021/12/27 10:24:01;;;;;;;8.65;3.85;;;;;;;;;;5046490;28;20080;-49
2021/12/27 10:26:27;;;;;;;9.68;3.95;;;;;;;;;;5026325;28;20053;-57
2021/12/27 10:29:05;;;;;;;6.53;2.80;;;;;;;;;;5012154;28;20132;-57
2021/12/27 10:31:49;;;;;;;11.38;4.60;;;;;;;;;;5020133;28;20048;-58
2021/12/27 10:34:15;;;;;;;8.63;3.65;;;;;;;;;;5031805;28;20116;-59
2021/12/27 10:39:45;;;;;;;11.68;4.07;;;;;;;;;;5085727;27;20502;-55
2021/12/27 10:42:14;;;;;;;9.23;3.42;;;;;;;;;;5066120;28;20082;-51
2021/12/27 10:44:40;;;;;;;10.43;4.55;;;;;;;;;;5068893;28;20147;-54
2021/12/27 10:47:23;;;;;;;8.95;3.80;;;;;;;;;;5066044;28;20075;-59
2021/12/27 10:49:50;;;;;;;9.07;3.67;;;;;;;;;;5069411;28;20079;-58
2021/12/27 10:52:16;;;;;;;8.90;3.33;;;;;;;;;;5066278;28;20048;-52
2021/12/27 10:54:47;;;;;;;8.90;4.25;;;;;;;;;;5068641;28;20121;-54
2021/12/27 10:57:15;;;;;;;8.18;3.58;;;;;;;;;;5065509;28;20048;-59
2021/12/27 10:59:42;;;;;;;6.57;3.03;;;;;;;;;;5069294;28;20076;-59
2021/12/27 11:02:10;;;;;;;8.95;3.47;;;;;;;;;;5066291;28;20044;-58
2021/12/27 11:04:37;;;;;;;9.15;3.33;;;;;;;;;;5069213;28;20048;-59
2021/12/27 11:07:03;;;;;;;7.97;3.15;;;;;;;;;;5064851;28;20048;-51
2021/12/27 11:09:30;;;;;;;7.60;3.03;;;;;;;;;;5068150;28;20081;-56
2021/12/27 11:12:03;;;;;;;10.50;3.60;;;;;;;;;;5065981;28;20139;-54
2021/12/27 11:14:29;;;;;;;11.02;4.20;;;;;;;;;;5049195;28;20056;-58
2021/12/27 11:16:55;;;;;;;10.00;4.53;;;;;;;;;;5048704;28;20140;-57
2021/12/27 11:19:22;;;;;;;8.68;2.63;;;;;;;;;;5081714;28;20083;-53
2021/12/27 11:21:50;;;;;;;8.73;3.67;;;;;;;;;;5068917;28;20052;-57
2021/12/27 11:24:18;;;;;;;7.32;3.28;;;;;;;;;;5065446;28;20143;-54
2021/12/27 11:26:45;;;;;;;6.80;2.92;;;;;;;;;;5068312;28;20059;-54
2021/12/27 11:29:17;;;;;;;9.57;3.83;;;;;;;;;;5063557;28;20053;-52
2021/12/27 11:31:51;;;;;;;13.38;4.28;;;;;;;;;;5068902;28;20063;-56
2021/12/27 11:34:19;;;;;;;10.60;4.25;;;;;;;;;;5065229;28;20055;-52
2021/12/27 11:36:47;;;;;;;10.75;5.80;;;;;;;;;;5068313;28;20087;-55
2021/12/27 11:39:22;;;;;;;10.38;4.32;;;;;;;;;;5061226;28;20114;-57
2021/12/27 11:42:11;;;;;;;10.07;4.13;;;;;;;;;;5064637;28;20102;-55
2021/12/27 11:44:43;;;;;;;9.52;3.75;;;;;;;;;;5061688;28;20110;-56
2021/12/27 11:47:11;;;;;;;8.07;3.35;;;;;;;;;;5064631;28;20044;-58
2021/12/27 11:49:55;;;;;;;11.52;4.03;;;;;;;;;;5056013;28;20065;-56
2021/12/27 11:52:24;;;;;;;12.82;4.22;;;;;;;;;;5051545;28;20139;-55
2021/12/27 11:54:53;;;;;;;9.02;3.85;;;;;;;;;;5048773;28;20044;-56
2021/12/27 11:57:39;;;;;;;11.73;3.78;;;;;;;;;;5051186;28;20099;-59
2021/12/27 12:00:24;;;;;;;13.25;4.32;;;;;;;;;;5047428;28;20052;-51
2021/12/27 12:02:54;;;;;;;9.68;3.60;;;;;;;;;;5051251;28;20057;-57
2021/12/27 12:05:35;;;;;;;10.27;4.15;;;;;;;;;;5048309;28;20052;-60
2021/12/27 12:08:02;;;;;;;7.90;3.00;;;;;;;;;;5049489;28;20073;-53
2021/12/27 12:10:30;;;;;;;13.73;4.15;;;;;;;;;;5047930;28;20068;-59
2021/12/27 12:13:15;;;;;;;10.93;4.25;;;;;;;;;;5051362;28;20043;-55
2021/12/27 12:15:55;;;;;;;9.48;4.07;;;;;;;;;;5047868;28;20053;-54
2021/12/27 12:18:24;;;;;;;11.02;3.95;;;;;;;;;;5050694;28;20075;-58
2021/12/27 12:21:04;;;;;;;7.95;3.05;;;;;;;;;;5047215;28;20111;-54
2021/12/27 12:23:35;;;;;;;9.70;3.47;;;;;;;;;;5050771;28;20052;-52
2021/12/27 12:26:03;;;;;;;8.90;3.55;;;;;;;;;;5047299;28;20057;-56
2021/12/27 12:28:33;;;;;;;8.55;3.67;;;;;;;;;;5050952;28;20068;-58
2021/12/27 12:30:59;;;;;;;9.98;3.92;;;;;;;;;;5047824;28;20084;-59
2021/12/27 12:33:28;;;;;;;9.93;4.43;;;;;;;;;;5049024;28;20073;-53
2021/12/27 12:35:57;;;;;;;8.82;3.15;;;;;;;;;;5047242;28;20102;-56
2021/12/27 12:38:25;;;;;;;8.32;3.13;;;;;;;;;;5050433;28;20072;-55
2021/12/27 12:41:04;;;;;;;9.38;3.30;;;;;;;;;;5047497;28;20049;-56
2021/12/27 12:43:30;;;;;;;;;;;;;;;;;;5050883;28;20057;-53
2021/12/27 12:45:56;;;;;;;7.38;3.28;;;;;;;;;;5047478;28;19968;-57
2021/12/27 12:48:28;;;;;;;11.32;3.85;;;;;;;;;;5050377;28;20067;-54
2021/12/27 12:50:59;;;;;;;8.55;3.90;;;;;;;;;;5047451;28;20121;-59
2021/12/27 12:53:31;;;;;;;8.55;3.72;;;;;;;;;;5050438;28;20049;-54
2021/12/27 12:56:00;;;;;;;11.15;4.03;;;;;;;;;;5046172;28;20051;-53
2021/12/27 12:58:31;;;;;;;9.75;3.90;;;;;;;;;;5028791;28;20053;-53
2021/12/27 13:01:02;;;;;;;9.32;3.60;;;;;;;;;;5030068;28;20110;-54
2021/12/27 13:03:30;;;;;;;9.13;3.55;;;;;;;;;;5045841;28;20106;-54
2021/12/27 13:05:57;;;;;;;10.20;3.60;;;;;;;;;;5041617;28;20041;-54
2021/12/27 13:08:23;;;;;;;7.80;3.53;;;;;;;;;;5046635;28;20072;-55
2021/12/27 13:10:52;;;;;;;10.10;3.58;;;;;;;;;;5049658;28;20099;-52
2021/12/27 13:13:19;;;;;;;12.63;4.50;;;;;;;;;;5047405;28;20068;-52
2021/12/27 13:15:52;;;;;;;9.57;4.20;;;;;;;;;;5050140;28;20091;-60
2021/12/27 13:18:19;;;;;;;7.82;3.42;;;;;;;;;;5047282;28;20127;-53
2021/12/27 13:20:49;;;;;;;8.30;3.65;;;;;;;;;;5050232;28;20117;-54
2021/12/27 13:23:16;;;;;;;9.30;3.88;;;;;;;;;;5046721;28;20077;-56
2021/12/27 13:25:45;;;;;;;8.88;3.60;;;;;;;;;;5049125;28;20076;-55
2021/12/27 13:28:21;;;;;;;9.15;3.13;;;;;;;;;;5046531;28;20063;-57
2021/12/27 13:31:11;;;;;;;13.60;4.50;;;;;;;;;;5049526;28;20048;-58
2021/12/27 13:33:40;;;;;;;7.55;2.90;;;;;;;;;;5046273;28;20060;-55
2021/12/27 13:36:09;;;;;;;15.35;4.68;;;;;;;;;;5048382;28;20099;-58
2021/12/27 13:38:36;;;;;;;8.52;3.45;;;;;;;;;;5040747;28;20092;-54
2021/12/27 13:41:08;;;;;;;7.35;3.10;;;;;;;;;;5028727;28;20049;-61
2021/12/27 13:43:47;;;;;;;8.55;3.67;;;;;;;;;;5025454;28;20057;-57
2021/12/27 13:46:14;;;;;;;7.40;3.22;;;;;;;;;;5029158;28;20053;-58
2021/12/27 13:48:41;;;;;;;9.32;3.22;;;;;;;;;;5025099;28;20108;-51
2021/12/27 13:51:11;;;;;;;9.15;3.65;;;;;;;;;;5029197;28;20136;-56
2021/12/27 13:53:40;;;;;;;10.88;3.97;;;;;;;;;;5026663;28;20049;-57
2021/12/27 13:56:07;;;;;;;8.85;3.42;;;;;;;;;;5028855;28;20159;-54
2021/12/27 13:58:38;;;;;;;9.57;4.13;;;;;;;;;;5024805;28;20073;-55
2021/12/27 14:01:13;;;;;;;9.07;3.50;;;;;;;;;;5028792;28;20050;-54
2021/12/27 14:03:40;;;;;;;7.53;2.83;;;;;;;;;;5026641;28;20080;-56
2021/12/27 14:06:08;;;;;;;8.32;3.25;;;;;;;;;;5029368;28;20052;-56
2021/12/27 14:08:36;;;;;;;11.55;3.67;;;;;;;;;;5029804;28;20053;-57
2021/12/27 14:11:07;;;;;;;8.75;3.90;;;;;;;;;;5023172;28;20076;-57
2021/12/27 14:14:04;;;;;;;8.57;3.80;;;;;;;;;;5024861;28;20050;-58
2021/12/27 14:16:31;;;;;;;8.80;3.38;;;;;;;;;;4991953;28;20053;-54
2021/12/27 14:19:16;;;;;;;10.13;3.88;;;;;;;;;;5019664;28;20049;-53
2021/12/27 14:22:01;;;;;;;8.32;3.28;;;;;;;;;;5001938;28;20054;-56
2021/12/27 14:24:31;;;;;;;9.57;3.65;;;;;;;;;;4987886;28;20054;-57
2021/12/27 14:26:57;;;;;;;10.10;4.20;;;;;;;;;;5009498;28;20429;-51
2021/12/27 14:29:24;;;;;;;7.60;3.28;;;;;;;;;;5021489;28;20053;-56
2021/12/27 14:31:53;;;;;;;10.32;3.35;;;;;;;;;;5042784;28;20068;-55
2021/12/27 14:34:36;;;;;;;9.20;4.00;;;;;;;;;;5029487;28;20064;-55
2021/12/27 14:37:04;;;;;;;7.75;3.22;;;;;;;;;;5029545;28;20077;-58
2021/12/27 14:39:32;;;;;;;9.73;3.47;;;;;;;;;;5044908;28;20429;-55
2021/12/27 14:42:07;;;;;;;9.95;2.90;;;;;;;;;;5041572;28;20091;-55
2021/12/27 14:44:40;;;;;;;7.43;3.08;;;;;;;;;;5041602;28;20049;-55
2021/12/27 14:47:07;;;;;;;6.35;2.78;;;;;;;;;;5038106;28;20061;-58